Todos
Eliwana Airport (Eliwana Mine, WA) WHB Condições meteorológicas
|
Eliwana Mine, WA (WHB / YEWA)
Céu Limpo
Vento Ligeiro |
|
26 °C |
WHB Previsão da área de terminais
| Date | Time (AWST) | Flight Rules | Wind Dir. | Speed | Type | Height AGL (ft) | Visibility | Remarks | ||||||
|---|---|---|---|---|---|---|---|---|---|---|---|---|---|---|
| 09-Mai | 21:00 | VFR | 100° | 5 kt | Clouds and Visibility are OK | >= 6 miles | ||||||||
| 09-Mai | 20:00 | VFR | 100° | 5 kt | Clouds and Visibility are OK | >= 6 miles | ||||||||
| 09-Mai | 19:00 | VFR | 100° | 5 kt | Clouds and Visibility are OK | >= 6 miles | ||||||||
| 09-Mai | 18:00 | VFR | 100° | 5 kt | Clouds and Visibility are OK | >= 6 miles | ||||||||
| 09-Mai | 17:00 | VFR | 100° | 5 kt | Clouds and Visibility are OK | >= 6 miles | ||||||||
| 09-Mai | 16:00 | VFR | 90° | 14 kt | Clouds and Visibility are OK | >= 6 miles | ||||||||
| 09-Mai | 15:00 | VFR | 90° | 14 kt | Clouds and Visibility are OK | >= 6 miles | ||||||||
Histórico recente de METAR WHB
| Date | Time (AWST) | Flight Rules | Wind Dir. | Speed | Type | Height AGL (ft) | Visibility | Temp (°C) | Temp (°F) | Dew Point (°C) | Dew Point (°F) | Rel. Humid. | Pressure | Density Altitude | Remarks |
|---|---|---|---|---|---|---|---|---|---|---|---|---|---|---|---|
| 09-Mai | 15:00 | VFR | 110° | 8 kt | 10000 meters | 26° | 78° | -6° | 21° | 12% | 1017 mb | 3.031 ft | |||
| 09-Mai | 14:00 | VFR | 140° | 9 kt | 10000 meters | 26° | 78° | -4° | 24° | 14% | 1018 mb | 3.001 ft | |||
| 09-Mai | 13:00 | VFR | 180° | 5 kt | 10000 meters | 25° | 77° | -3° | 26° | 15% | 1019 mb | 2.852 ft | |||
| 09-Mai | 12:00 | VFR | 110° | 6 kt | 10000 meters | 23° | 73° | -1° | 30° | 20% | 1020 mb | 2.582 ft | |||
| 09-Mai | 11:00 | VFR | 70° | 9 kt | 10000 meters | 23° | 73° | -1° | 30° | 20% | 1021 mb | 2.552 ft | |||
| 09-Mai | 10:00 | VFR | 80° | 14 kt | 10000 meters | 21° | 69° | 0° | 32° | 25% | 1021 mb | 2.312 ft | |||
| 09-Mai | 09:00 | VFR | 70° | 16 kt | 10000 meters | 20° | 68° | 0° | 32° | 26% | 1021 mb | 2.192 ft | |||
| 09-Mai | 08:00 | VFR | 80° | 14 kt | 10000 meters | 19° | 66° | 0° | 32° | 28% | 1021 mb | 2.072 ft | |||
| 09-Mai | 07:00 | VFR | 90° | 9 kt | 10000 meters | 17° | 62° | 0° | 32° | 32% | 1021 mb | 1.832 ft | |||
| 09-Mai | 06:00 | VFR | 110° | 7 kt | 10000 meters | 15° | 59° | 0° | 32° | 36% | 1020 mb | 1.622 ft | |||
| 09-Mai | 05:00 | VFR | 80° | 9 kt | 10000 meters | 17° | 62° | 0° | 32° | 32% | 1020 mb | 1.862 ft | |||
| 09-Mai | 04:00 | VFR | 80° | 9 kt | 10000 meters | 18° | 64° | 0° | 32° | 30% | 1020 mb | 1.982 ft | |||
| 09-Mai | 03:00 | VFR | 90° | 7 kt | 10000 meters | 18° | 64° | -1° | 30° | 28% | 1020 mb | 1.982 ft | |||
| 09-Mai | 02:00 | VFR | 80° | 7 kt | 10000 meters | 18° | 64° | -1° | 30° | 28% | 1020 mb | 1.982 ft | |||
| 09-Mai | 01:00 | VFR | 70° | 6 kt | 10000 meters | 18° | 64° | -2° | 28° | 26% | 1020 mb | 1.982 ft | |||
| 09-Mai | 00:00 | VFR | 100° | 6 kt | 10000 meters | 18° | 64° | -1° | 30° | 28% | 1020 mb | 1.982 ft | |||
| 08-Mai | 23:00 | VFR | 110° | 5 kt | 10000 meters | 19° | 66° | -1° | 30° | 26% | 1020 mb | 2.102 ft | |||
| 08-Mai | 22:00 | VFR | 90° | 8 kt | 10000 meters | 21° | 69° | 1° | 33° | 26% | 1020 mb | 2.342 ft | |||
| 08-Mai | 21:00 | VFR | 100° | 6 kt | 10000 meters | 22° | 71° | 1° | 33° | 25% | 1020 mb | 2.462 ft | |||
| 08-Mai | 20:00 | VFR | 120° | 6 kt | 10000 meters | 22° | 71° | 1° | 33° | 25% | 1019 mb | 2.492 ft | |||
| 08-Mai | 19:00 | VFR | 110° | 6 kt | 10000 meters | 24° | 75° | 1° | 33° | 22% | 1018 mb | 2.761 ft | |||
| 08-Mai | 18:00 | VFR | 100° | 6 kt | 10000 meters | 25° | 77° | 1° | 33° | 21% | 1018 mb | 2.881 ft | |||
| 08-Mai | 17:00 | VFR | 100° | 7 kt | 10000 meters | 27° | 80° | 1° | 33° | 18% | 1018 mb | 3.121 ft | |||
| 08-Mai | 16:00 | VFR | 110° | 9 kt | 10000 meters | 27° | 80° | 2° | 35° | 20% | 1017 mb | 3.151 ft |
Entrar
| Seu navegador não suporta. atualize seu navegador |
